createdAt,value
2023-01-07T00:01:37.684Z,9.80
2023-01-07T00:04:08.765Z,5.88
2023-01-07T00:06:39.671Z,5.90
2023-01-07T00:09:16.478Z,6.53
2023-01-07T00:11:44.797Z,6.28
2023-01-07T00:14:14.266Z,6.50
2023-01-07T00:16:42.671Z,5.63
2023-01-07T00:19:15.816Z,20.38
2023-01-07T00:21:43.417Z,40.72
2023-01-07T00:24:12.053Z,48.00
2023-01-07T00:31:40.013Z,4.60
2023-01-07T00:34:09.426Z,22.10
2023-01-07T00:36:46.200Z,76.80
2023-01-07T00:39:21.266Z,82.13
2023-01-07T00:42:08.456Z,59.25
2023-01-07T00:44:37.930Z,44.90
2023-01-07T00:47:05.663Z,6.32
2023-01-07T00:49:33.377Z,4.20
2023-01-07T00:52:00.858Z,4.07
2023-01-07T00:54:28.745Z,5.67
2023-01-07T00:56:56.529Z,7.45
2023-01-07T00:59:24.046Z,10.05
2023-01-07T01:01:51.994Z,8.48
2023-01-07T01:04:19.453Z,8.77
2023-01-07T01:06:46.909Z,7.18
2023-01-07T01:09:14.303Z,5.78
2023-01-07T01:11:42.223Z,29.85
2023-01-07T01:14:11.781Z,66.78
2023-01-07T01:16:39.674Z,49.92
2023-01-07T01:19:07.274Z,29.95
2023-01-07T01:21:34.720Z,7.97
2023-01-07T01:24:02.098Z,7.32
2023-01-07T01:26:29.470Z,7.53
2023-01-07T01:28:57.494Z,4.80
2023-01-07T01:33:57.355Z,4.35
2023-01-07T01:36:25.183Z,4.47
2023-01-07T01:38:55.379Z,4.55
2023-01-07T01:41:23.262Z,4.30
2023-01-07T01:43:53.340Z,4.32
2023-01-07T01:46:40.895Z,4.68
2023-01-07T01:49:23.421Z,4.22
2023-01-07T01:52:06.916Z,5.53
2023-01-07T01:54:34.553Z,61.42
2023-01-07T01:57:05.972Z,72.85
2023-01-07T01:59:42.142Z,57.28
2023-01-07T02:02:16.466Z,19.98
2023-01-07T02:04:44.547Z,13.75
2023-01-07T02:07:17.399Z,12.13
2023-01-07T02:10:18.966Z,14.43
2023-01-07T02:13:24.763Z,5.30
2023-01-07T02:16:28.355Z,5.10
2023-01-07T02:19:24.498Z,4.13
2023-01-07T02:22:16.672Z,4.28
2023-01-07T02:25:21.938Z,4.35
2023-01-07T02:28:08.069Z,5.10
2023-01-07T02:31:35.280Z,35.95
2023-01-07T02:34:19.655Z,7.25
2023-01-07T02:37:01.548Z,5.95
2023-01-07T02:40:20.408Z,6.40
2023-01-07T02:43:16.519Z,6.95
2023-01-07T02:46:13.849Z,7.32
2023-01-07T02:48:43.994Z,5.10
2023-01-07T02:51:11.741Z,4.13
2023-01-07T02:53:42.192Z,4.22
2023-01-07T02:56:54.360Z,4.07
2023-01-07T02:59:44.812Z,4.10
2023-01-07T03:02:43.550Z,3.97
2023-01-07T16:08:00.856Z,28.38
2023-01-07T16:10:35.987Z,24.42
2023-01-07T16:13:15.760Z,22.08
2023-01-07T16:15:43.320Z,18.52
2023-01-07T16:18:11.292Z,19.17
2023-01-07T16:20:50.314Z,23.73
2023-01-07T16:23:21.701Z,27.05
2023-01-07T16:26:10.096Z,23.42
2023-01-07T16:28:51.107Z,22.13
2023-01-07T16:31:23.435Z,22.88
2023-01-07T16:33:56.084Z,18.27
2023-01-07T16:36:31.964Z,28.30
2023-01-07T16:39:15.051Z,45.45
2023-01-07T16:41:42.920Z,48.08
2023-01-07T16:44:42.074Z,71.75
2023-01-07T16:47:34.284Z,72.20
2023-01-07T16:50:13.656Z,103.00
2023-01-07T16:52:55.832Z,117.93
2023-01-07T16:56:15.007Z,136.48
2023-01-07T16:58:55.679Z,137.95
2023-01-07T17:01:35.199Z,124.35
2023-01-07T17:04:20.185Z,120.63
2023-01-07T17:06:47.773Z,124.75
2023-01-07T17:09:38.555Z,131.80
2023-01-07T17:12:06.299Z,120.43
2023-01-07T17:14:33.730Z,113.65
2023-01-07T17:17:18.184Z,95.78
2023-01-07T17:20:10.512Z,76.00
2023-01-07T17:22:39.822Z,70.35
2023-01-07T17:25:15.771Z,71.50
2023-01-07T17:27:58.375Z,75.20
2023-01-07T17:30:34.725Z,60.22
2023-01-07T17:33:02.644Z,54.83
2023-01-07T17:35:30.138Z,61.53
2023-01-07T17:37:57.559Z,61.85
2023-01-07T17:40:25.202Z,61.67
2023-01-07T17:43:11.256Z,66.10
2023-01-07T17:45:38.786Z,67.55
2023-01-07T17:48:13.768Z,61.87
2023-01-07T17:50:42.541Z,59.65
2023-01-07T17:53:25.475Z,59.70
2023-01-07T17:55:53.447Z,53.88
2023-01-07T17:58:34.373Z,49.55
2023-01-07T18:01:07.010Z,50.17
2023-01-07T18:03:34.610Z,47.03
2023-01-07T18:06:02.749Z,52.60
2023-01-07T18:08:30.179Z,53.70
2023-01-07T18:11:15.944Z,45.50
2023-01-07T18:13:43.529Z,40.17
2023-01-07T18:16:16.261Z,36.55
2023-01-07T18:18:43.874Z,34.35
2023-01-07T18:21:12.364Z,32.22
2023-01-07T18:23:39.761Z,33.35
2023-01-07T18:26:07.872Z,31.88
2023-01-07T18:28:35.359Z,29.00
2023-01-07T18:31:02.806Z,25.65
2023-01-07T18:33:30.203Z,26.90
2023-01-07T18:35:57.611Z,29.50
2023-01-07T18:38:25.027Z,29.63
2023-01-07T18:40:54.966Z,29.38
2023-01-07T18:43:22.382Z,28.23
2023-01-07T18:45:49.922Z,28.00
2023-01-07T18:48:19.026Z,28.60
2023-01-07T18:50:49.267Z,29.52
2023-01-07T18:53:18.741Z,30.90
2023-01-07T18:55:46.381Z,32.20
2023-01-07T18:58:15.447Z,31.40
2023-01-07T19:00:43.090Z,31.50
2023-01-07T19:03:11.163Z,35.03
2023-01-07T19:05:41.016Z,37.28
2023-01-07T19:08:08.501Z,36.42
2023-01-07T19:10:42.539Z,29.48
2023-01-07T19:13:09.930Z,26.70
2023-01-07T19:15:40.357Z,22.40
2023-01-07T19:18:07.793Z,23.85
2023-01-07T19:20:36.277Z,22.75
2023-01-07T19:23:03.722Z,23.63
2023-01-07T19:25:31.619Z,23.13
2023-01-07T19:27:59.069Z,25.58
2023-01-07T19:30:26.603Z,25.80
2023-01-07T19:32:54.508Z,26.10
2023-01-07T19:35:21.902Z,28.75
2023-01-07T19:37:50.209Z,27.92
2023-01-07T19:40:20.188Z,27.95
2023-01-07T19:42:48.879Z,26.17
2023-01-07T19:45:16.420Z,25.23
2023-01-07T19:47:44.252Z,24.45
2023-01-07T19:50:11.843Z,25.77
2023-01-07T19:52:39.319Z,28.48
2023-01-07T19:55:07.541Z,34.72
2023-01-07T19:57:35.082Z,32.85
2023-01-07T20:00:03.161Z,28.20
2023-01-07T20:02:32.338Z,31.63
2023-01-07T20:04:59.824Z,27.25
2023-01-07T20:07:27.281Z,26.42
2023-01-07T20:09:54.689Z,26.45
2023-01-07T20:12:22.058Z,26.20
2023-01-07T20:14:49.463Z,25.67
2023-01-07T20:17:16.853Z,24.73
2023-01-07T20:19:47.304Z,24.75
2023-01-07T20:22:14.701Z,23.48
2023-01-07T20:24:42.179Z,22.75
2023-01-07T20:27:09.598Z,23.80
2023-01-07T20:29:38.724Z,23.02
2023-01-07T20:32:08.231Z,23.33
2023-01-07T20:34:35.672Z,24.25
2023-01-07T20:37:03.198Z,23.48
2023-01-07T20:40:04.850Z,22.70
2023-01-07T20:42:32.347Z,23.25
2023-01-07T20:45:00.360Z,25.25
2023-01-07T20:47:27.748Z,25.95
2023-01-07T20:49:55.086Z,25.13
2023-01-07T20:52:22.378Z,25.55
2023-01-07T20:54:49.722Z,24.27
2023-01-07T20:57:17.292Z,23.92
2023-01-07T20:59:44.601Z,24.42
2023-01-07T21:02:17.722Z,25.48
2023-01-07T21:04:45.126Z,27.45
2023-01-07T21:07:12.543Z,26.80
2023-01-07T21:09:40.478Z,27.23
2023-01-07T21:12:08.371Z,29.05
2023-01-07T21:14:35.734Z,29.73
2023-01-07T21:17:03.418Z,29.33
2023-01-07T21:19:30.736Z,32.60
2023-01-07T21:22:00.365Z,33.47
2023-01-07T21:24:27.811Z,32.63
2023-01-07T21:26:55.124Z,30.60
2023-01-07T21:29:22.438Z,31.95
2023-01-07T21:31:49.859Z,33.00
2023-01-07T21:34:17.501Z,32.38
2023-01-07T21:36:44.909Z,37.47
2023-01-07T21:39:13.155Z,32.38
2023-01-07T21:41:40.725Z,32.50
2023-01-07T21:44:11.932Z,38.17
2023-01-07T21:46:39.410Z,41.65
2023-01-07T21:49:08.204Z,41.10
2023-01-07T21:51:35.937Z,38.45
2023-01-07T21:54:03.508Z,38.87
2023-01-07T21:56:32.934Z,40.95
2023-01-07T21:59:00.681Z,39.72
2023-01-07T22:01:29.172Z,39.30
2023-01-07T22:03:59.057Z,34.80
2023-01-07T22:06:33.856Z,34.28
2023-01-07T22:09:13.029Z,31.25
2023-01-07T22:11:42.045Z,30.33
2023-01-07T22:14:17.170Z,28.00
2023-01-07T22:16:47.435Z,25.40
2023-01-07T22:19:16.314Z,25.77
2023-01-07T22:21:43.624Z,24.50
2023-01-07T22:24:11.256Z,24.85
2023-01-07T22:26:38.672Z,25.10
2023-01-07T22:29:07.922Z,24.33
2023-01-07T22:31:36.817Z,23.77
2023-01-07T22:34:06.549Z,22.25
2023-01-07T22:36:55.784Z,21.85
2023-01-07T22:39:32.180Z,23.65
2023-01-07T22:42:12.206Z,25.92
2023-01-07T22:44:47.672Z,23.67
2023-01-07T22:47:19.432Z,22.38
2023-01-07T22:49:48.372Z,22.00
2023-01-07T22:52:15.952Z,22.92
2023-01-07T22:54:43.651Z,20.83
2023-01-07T22:57:13.053Z,20.57
2023-01-07T22:59:40.458Z,18.77
2023-01-07T23:02:07.862Z,19.10
2023-01-07T23:04:35.496Z,18.55
2023-01-07T23:07:03.179Z,17.92
2023-01-07T23:09:30.612Z,18.07
2023-01-07T23:12:00.941Z,16.85
2023-01-07T23:14:29.909Z,17.35
2023-01-07T23:16:58.703Z,19.38
2023-01-07T23:19:26.156Z,18.17
2023-01-07T23:21:55.162Z,17.40
2023-01-07T23:24:23.507Z,18.10
2023-01-07T23:26:53.575Z,19.40
2023-01-07T23:29:22.039Z,19.40
2023-01-07T23:31:49.986Z,21.30
2023-01-07T23:34:17.627Z,20.55
2023-01-07T23:36:45.036Z,21.00
2023-01-07T23:39:12.965Z,20.10
2023-01-07T23:41:40.319Z,19.55
2023-01-07T23:44:07.783Z,19.77
2023-01-07T23:46:35.211Z,19.60
2023-01-07T23:49:02.599Z,20.83
2023-01-07T23:51:29.968Z,24.70
2023-01-07T23:53:57.309Z,24.05
2023-01-07T23:56:24.757Z,24.38
2023-01-07T23:58:52.234Z,22.75
